createdAt,value
2023-02-25T00:01:27.484Z,18.83
2023-02-25T00:03:55.890Z,17.75
2023-02-25T00:06:23.576Z,19.92
2023-02-25T00:08:51.769Z,15.60
2023-02-25T00:11:20.427Z,22.95
2023-02-25T00:13:47.116Z,20.35
2023-02-25T00:16:15.049Z,19.92
2023-02-25T00:18:44.434Z,17.55
2023-02-25T00:21:17.648Z,17.13
2023-02-25T00:23:47.118Z,19.20
2023-02-25T00:26:15.150Z,22.83
2023-02-25T00:28:42.088Z,19.15
2023-02-25T00:31:20.643Z,15.82
2023-02-25T00:33:48.553Z,19.20
2023-02-25T00:36:20.626Z,19.40
2023-02-25T00:38:49.377Z,16.90
2023-02-25T00:41:19.018Z,17.08
2023-02-25T00:43:53.242Z,16.05
2023-02-25T00:46:20.651Z,19.90
2023-02-25T00:48:47.841Z,13.73
2023-02-25T00:51:18.023Z,18.13
2023-02-25T00:53:45.544Z,22.17
2023-02-25T00:56:15.590Z,18.80
2023-02-25T00:58:44.386Z,16.92
2023-02-25T01:01:25.224Z,17.95
2023-02-25T01:03:53.934Z,16.77
2023-02-25T01:06:21.254Z,18.38
2023-02-25T01:08:48.749Z,17.98
2023-02-25T01:11:20.942Z,16.30
2023-02-25T01:13:50.462Z,19.50
2023-02-25T01:16:23.605Z,17.90
2023-02-25T01:18:59.129Z,16.02
2023-02-25T01:21:28.919Z,19.15
2023-02-25T01:24:01.944Z,17.85
2023-02-25T01:26:30.194Z,21.00
2023-02-25T01:28:56.876Z,21.67
2023-02-25T01:31:29.239Z,19.10
2023-02-25T01:34:00.545Z,21.80
2023-02-25T01:36:28.585Z,17.38
2023-02-25T01:38:56.363Z,22.70
2023-02-25T01:41:24.984Z,19.30
2023-02-25T01:44:17.233Z,18.13
2023-02-25T01:46:46.043Z,17.70
2023-02-25T01:49:17.913Z,22.33
2023-02-25T01:51:47.568Z,19.35
2023-02-25T01:54:15.657Z,18.70
2023-02-25T01:56:48.192Z,18.30
2023-02-25T01:59:16.296Z,17.27
2023-02-25T02:01:43.978Z,18.55
2023-02-25T02:04:12.892Z,19.08
2023-02-25T02:06:43.181Z,15.68
2023-02-25T02:11:42.122Z,14.02
2023-02-25T02:14:12.814Z,18.83
2023-02-25T02:16:51.793Z,17.73
2023-02-25T02:19:43.200Z,16.10
2023-02-25T02:22:27.323Z,14.85
2023-02-25T02:25:02.528Z,16.75
2023-02-25T02:27:51.715Z,22.70
2023-02-25T02:30:26.206Z,17.17
2023-02-25T02:33:01.757Z,19.08
2023-02-25T02:35:43.857Z,20.20
2023-02-25T02:38:31.338Z,18.60
2023-02-25T02:41:14.124Z,17.88
2023-02-25T02:43:57.848Z,19.35
2023-02-25T02:46:34.077Z,17.50
2023-02-25T02:49:12.499Z,19.25
2023-02-25T02:51:57.083Z,17.88
2023-02-25T02:54:27.709Z,21.38
2023-02-25T02:56:56.026Z,17.50
2023-02-25T02:59:32.703Z,19.00
2023-02-25T03:02:16.102Z,18.38
2023-02-25T03:04:45.436Z,21.17
2023-02-25T03:07:14.040Z,25.90
2023-02-25T03:09:46.482Z,18.70
2023-02-25T03:12:13.208Z,15.77
2023-02-25T03:14:40.223Z,18.20
2023-02-25T03:17:13.941Z,15.85
2023-02-25T03:20:02.106Z,17.05
2023-02-25T03:22:33.858Z,15.20
2023-02-25T03:25:21.810Z,12.77
2023-02-25T03:27:52.927Z,12.70
2023-02-25T03:30:35.293Z,11.60
2023-02-25T03:33:04.746Z,14.13
2023-02-25T03:35:34.188Z,13.38
2023-02-25T03:38:05.322Z,15.30
2023-02-25T03:40:33.862Z,10.45
2023-02-25T03:43:37.372Z,15.35
2023-02-25T03:46:05.489Z,11.20
2023-02-25T03:48:35.140Z,11.13
2023-02-25T03:51:03.707Z,11.95
2023-02-25T03:53:32.823Z,12.07
2023-02-25T03:56:05.460Z,10.15
2023-02-25T03:58:38.714Z,14.77
2023-02-25T04:01:16.133Z,13.82
2023-02-25T04:03:43.848Z,15.60
2023-02-25T04:06:13.018Z,13.18
2023-02-25T04:08:40.894Z,11.30
2023-02-25T04:11:07.758Z,12.20
2023-02-25T04:13:34.410Z,12.93
2023-02-25T04:16:02.193Z,11.43
2023-02-25T04:18:28.907Z,11.00
2023-02-25T04:20:55.553Z,15.25
2023-02-25T04:23:22.849Z,10.20
2023-02-25T04:25:50.281Z,9.93
2023-02-25T04:28:17.084Z,8.93
2023-02-25T04:30:43.997Z,11.40
2023-02-25T04:33:11.887Z,11.10
2023-02-25T04:35:39.166Z,13.07
2023-02-25T04:38:08.811Z,13.52
2023-02-25T04:40:36.456Z,8.80
2023-02-25T04:43:03.439Z,8.20
2023-02-25T04:45:30.146Z,10.27
2023-02-25T04:47:59.795Z,11.90
2023-02-25T04:50:26.779Z,13.65
2023-02-25T04:52:53.423Z,13.43
2023-02-25T04:55:20.086Z,9.20
2023-02-25T04:57:46.803Z,10.23
2023-02-25T05:00:19.177Z,10.18
2023-02-25T05:02:49.073Z,6.95
2023-02-25T05:05:17.004Z,9.25
2023-02-25T05:07:44.194Z,10.10
2023-02-25T05:10:12.749Z,11.65
2023-02-25T05:12:39.380Z,11.30
2023-02-25T05:15:08.383Z,9.93
2023-02-25T05:17:36.154Z,11.68
2023-02-25T05:20:07.110Z,10.73
2023-02-25T05:22:33.798Z,10.80
2023-02-25T05:25:00.420Z,11.10
2023-02-25T05:27:27.075Z,9.85
2023-02-25T05:29:54.870Z,8.35
2023-02-25T05:32:22.185Z,7.57
2023-02-25T05:34:48.946Z,9.75
2023-02-25T05:37:16.125Z,8.15
2023-02-25T05:39:42.909Z,9.75
2023-02-25T05:42:09.531Z,7.90
2023-02-25T05:44:36.174Z,7.50
2023-02-25T05:47:02.984Z,7.22
2023-02-25T05:49:29.719Z,8.32
2023-02-25T05:51:56.369Z,14.68
2023-02-25T05:54:23.018Z,11.52
2023-02-25T05:56:52.681Z,8.45
2023-02-25T05:59:20.818Z,8.90
2023-02-25T06:01:47.496Z,10.25
2023-02-25T06:04:14.375Z,8.80
2023-02-25T06:06:41.809Z,8.85
2023-02-25T06:09:10.330Z,8.88
2023-02-25T06:11:37.067Z,9.73
2023-02-25T06:14:03.720Z,8.63
2023-02-25T06:16:32.251Z,11.32
2023-02-25T06:19:01.234Z,8.93
2023-02-25T06:21:28.022Z,9.35
2023-02-25T06:23:54.788Z,7.97
2023-02-25T06:26:22.337Z,12.75
2023-02-25T06:28:49.306Z,8.85
2023-02-25T06:31:18.177Z,9.13
2023-02-25T06:33:46.785Z,10.07
2023-02-25T06:36:14.317Z,9.02
2023-02-25T06:38:43.077Z,13.48
2023-02-25T06:41:15.379Z,12.15
2023-02-25T06:43:42.455Z,7.63
2023-02-25T06:46:12.100Z,9.38
2023-02-25T06:48:39.018Z,10.55
2023-02-25T06:51:09.440Z,11.38
2023-02-25T06:53:40.666Z,12.40
2023-02-25T06:56:08.908Z,9.23
2023-02-25T06:58:36.223Z,8.95
2023-02-25T07:01:07.597Z,9.48
2023-02-25T07:03:34.374Z,12.90
2023-02-25T07:06:01.015Z,9.60
2023-02-25T07:08:27.660Z,10.20
2023-02-25T07:10:54.299Z,11.27
2023-02-25T07:13:20.954Z,14.63
2023-02-25T07:15:47.607Z,8.98
2023-02-25T07:18:14.382Z,12.73
2023-02-25T07:20:40.989Z,11.43
2023-02-25T07:23:07.655Z,7.95
2023-02-25T07:25:34.393Z,10.30
2023-02-25T07:28:01.076Z,9.38
2023-02-25T07:30:27.762Z,9.68
2023-02-25T07:32:54.466Z,8.45
2023-02-25T07:35:21.128Z,8.60
2023-02-25T07:37:47.829Z,9.15
2023-02-25T07:40:16.640Z,6.78
2023-02-25T07:42:43.399Z,5.85
2023-02-25T07:45:11.164Z,10.02
2023-02-25T07:47:38.209Z,9.05
2023-02-25T07:50:06.659Z,8.55
2023-02-25T07:52:33.306Z,7.35
2023-02-25T07:54:59.978Z,7.45
2023-02-25T07:57:27.672Z,13.00
2023-02-25T07:59:54.324Z,8.80
2023-02-25T08:02:21.563Z,12.13
2023-02-25T08:04:48.335Z,9.98
2023-02-25T08:07:15.022Z,10.52
2023-02-25T08:09:41.886Z,5.38
2023-02-25T08:12:08.842Z,5.88
2023-02-25T08:14:37.146Z,6.57
2023-02-25T08:17:03.782Z,8.63
2023-02-25T08:19:30.417Z,7.32
2023-02-25T08:21:57.073Z,6.68
2023-02-25T08:24:23.852Z,9.68
2023-02-25T08:26:50.510Z,4.40
2023-02-25T08:29:17.310Z,6.60
2023-02-25T08:31:44.068Z,6.10
2023-02-25T08:34:11.758Z,5.63
2023-02-25T08:36:38.544Z,8.23
2023-02-25T08:39:05.346Z,11.02
2023-02-25T08:41:32.139Z,3.38
2023-02-25T08:44:01.092Z,4.97
2023-02-25T08:46:30.698Z,4.97
2023-02-25T08:48:58.104Z,6.13
2023-02-25T08:51:33.824Z,8.45
2023-02-25T08:54:07.997Z,7.35
2023-02-25T08:56:36.310Z,5.25
2023-02-25T08:59:04.174Z,2.72
2023-02-25T09:01:44.523Z,5.13
2023-02-25T09:04:19.655Z,2.90
2023-02-25T09:06:49.547Z,5.72
2023-02-25T09:09:17.569Z,8.45
2023-02-25T09:11:45.125Z,8.80
2023-02-25T09:14:13.103Z,5.25
2023-02-25T09:16:40.202Z,6.05
2023-02-25T09:19:07.371Z,7.38
2023-02-25T09:21:36.007Z,5.10
2023-02-25T09:24:02.725Z,5.10
2023-02-25T09:26:29.358Z,4.00
2023-02-25T09:28:56.049Z,5.82
2023-02-25T09:31:23.226Z,6.43
2023-02-25T09:33:50.148Z,4.60
2023-02-25T09:36:20.160Z,7.35
2023-02-25T09:38:48.888Z,3.60
2023-02-25T09:41:31.426Z,5.07
2023-02-25T09:44:23.547Z,4.07
2023-02-25T09:47:15.736Z,7.30
2023-02-25T09:50:00.138Z,12.90
2023-02-25T09:52:36.879Z,6.07
2023-02-25T09:55:35.219Z,5.43
2023-02-25T09:58:11.163Z,3.67
2023-02-25T10:00:57.791Z,7.55
2023-02-25T10:03:40.955Z,10.23
2023-02-25T10:06:34.074Z,7.72
2023-02-25T10:09:34.335Z,6.85
2023-02-25T10:12:33.661Z,9.88
2023-02-25T10:15:32.427Z,6.38
2023-02-25T10:18:19.081Z,6.22
2023-02-25T10:21:03.315Z,9.57
2023-02-25T10:23:38.015Z,2.95
2023-02-25T10:26:09.133Z,2.95
2023-02-25T10:28:36.173Z,6.32
2023-02-25T10:31:08.852Z,5.47
2023-02-25T10:33:37.869Z,4.57
2023-02-25T10:36:21.860Z,2.08
2023-02-25T10:38:53.117Z,5.85
2023-02-25T10:41:22.895Z,4.13
2023-02-25T10:43:51.152Z,8.02
2023-02-25T10:46:46.960Z,5.43
2023-02-25T10:49:28.624Z,4.03
2023-02-25T10:52:05.855Z,7.10
2023-02-25T10:54:54.821Z,4.45
2023-02-25T10:57:27.248Z,6.05
2023-02-25T11:00:02.578Z,3.05
2023-02-25T11:02:32.440Z,4.38
2023-02-25T11:04:59.200Z,7.25
2023-02-25T11:07:41.894Z,3.30
2023-02-25T11:10:19.534Z,6.60
2023-02-25T11:12:55.172Z,6.85
2023-02-25T11:15:46.089Z,3.67
2023-02-25T11:18:21.587Z,5.28
2023-02-25T11:20:54.969Z,5.40
2023-02-25T11:23:28.563Z,5.28
2023-02-25T11:25:55.725Z,6.35
2023-02-25T11:28:33.117Z,3.53
2023-02-25T11:31:19.694Z,2.22
2023-02-25T11:33:57.276Z,5.07
2023-02-25T11:36:26.051Z,4.85
2023-02-25T11:39:13.342Z,4.38
2023-02-25T11:41:40.082Z,5.25
2023-02-25T11:44:28.593Z,5.57
2023-02-25T11:47:03.236Z,6.05
2023-02-25T11:49:50.860Z,4.82
2023-02-25T11:52:39.505Z,6.25
2023-02-25T11:55:36.729Z,6.88
2023-02-25T11:58:15.235Z,4.05
2023-02-25T12:01:04.784Z,5.07
2023-02-25T12:03:40.591Z,4.43
2023-02-25T12:06:28.597Z,4.28
2023-02-25T12:08:58.260Z,3.80
2023-02-25T12:12:02.834Z,3.35
2023-02-25T12:14:44.915Z,4.55
2023-02-25T12:17:20.730Z,4.15
2023-02-25T12:19:59.328Z,5.95
2023-02-25T12:22:47.594Z,2.13
2023-02-25T12:25:30.742Z,4.93
2023-02-25T12:28:06.390Z,3.63
2023-02-25T12:31:01.265Z,5.85
2023-02-25T12:33:52.378Z,3.53
2023-02-25T12:36:44.622Z,3.10
2023-02-25T12:39:23.287Z,3.70
2023-02-25T12:42:13.914Z,5.20
2023-02-25T12:45:18.430Z,8.38
2023-02-25T12:47:48.067Z,4.47
2023-02-25T12:50:40.336Z,6.57
2023-02-25T12:53:14.123Z,7.95
2023-02-25T12:56:02.430Z,7.30
2023-02-25T12:59:07.028Z,4.13
2023-02-25T13:02:14.926Z,7.80
2023-02-25T13:05:09.533Z,6.05
2023-02-25T13:08:13.892Z,5.30
2023-02-25T13:11:02.635Z,7.50
2023-02-25T13:13:40.047Z,4.63
2023-02-25T13:16:26.576Z,3.40
2023-02-25T13:19:14.588Z,5.03
2023-02-25T13:22:00.069Z,13.90
2023-02-25T13:24:46.507Z,7.53
2023-02-25T13:27:51.790Z,5.70
2023-02-25T13:30:33.210Z,4.60
2023-02-25T13:33:24.290Z,8.38
2023-02-25T13:36:27.544Z,3.05
2023-02-25T13:39:35.538Z,4.50
2023-02-25T13:42:47.270Z,5.32
2023-02-25T13:45:29.578Z,5.93
2023-02-25T13:48:17.949Z,3.92
2023-02-25T13:51:24.737Z,4.32
2023-02-25T13:54:12.745Z,5.38
2023-02-25T13:57:01.154Z,11.25
2023-02-25T14:00:05.748Z,5.20
2023-02-25T14:03:06.216Z,6.50
2023-02-25T14:06:00.946Z,6.40
2023-02-25T14:08:58.846Z,6.85
2023-02-25T14:12:12.789Z,6.40
2023-02-25T14:14:58.158Z,10.30
2023-02-25T14:17:53.174Z,6.32
2023-02-25T14:20:31.428Z,4.28
2023-02-25T14:23:27.536Z,4.97
2023-02-25T14:26:09.370Z,6.20
2023-02-25T14:29:01.546Z,7.93
2023-02-25T14:31:50.515Z,5.75
2023-02-25T14:34:25.872Z,3.05
2023-02-25T14:37:03.110Z,4.43
2023-02-25T14:39:35.705Z,10.25
2023-02-25T14:42:34.774Z,5.53
2023-02-25T14:45:16.623Z,9.95
2023-02-25T14:48:00.036Z,6.88
2023-02-25T14:50:38.029Z,3.80
2023-02-25T14:53:38.737Z,7.68
2023-02-25T14:56:26.465Z,5.03
2023-02-25T14:59:01.980Z,7.30
2023-02-25T15:01:44.474Z,7.57
2023-02-25T15:04:48.922Z,9.77
2023-02-25T15:07:36.971Z,3.97
2023-02-25T15:10:31.900Z,5.40
2023-02-25T15:13:26.169Z,6.80
2023-02-25T15:16:20.575Z,7.20
2023-02-25T15:19:29.988Z,2.67
2023-02-25T15:22:26.971Z,5.40
2023-02-25T15:25:14.939Z,8.20
2023-02-25T15:27:57.510Z,4.00
2023-02-25T15:30:26.685Z,5.55
2023-02-25T15:33:13.567Z,7.68
2023-02-25T15:35:40.168Z,3.60
2023-02-25T15:38:13.595Z,3.15
2023-02-25T15:40:45.263Z,5.32
2023-02-25T15:43:15.200Z,5.68
2023-02-25T15:46:08.038Z,3.13
2023-02-25T15:48:37.885Z,5.10
2023-02-25T15:51:11.722Z,3.20
2023-02-25T15:53:41.768Z,4.32
2023-02-25T15:56:11.428Z,7.65
2023-02-25T15:58:52.041Z,2.95
2023-02-25T16:01:27.806Z,6.75
2023-02-25T16:03:55.033Z,5.07
2023-02-25T16:06:40.658Z,5.45
2023-02-25T16:09:11.748Z,5.63
2023-02-25T16:11:51.124Z,6.43
2023-02-25T16:14:24.503Z,5.43
2023-02-25T16:17:16.554Z,7.63
2023-02-25T16:19:46.326Z,6.50
2023-02-25T16:22:17.717Z,4.45
2023-02-25T16:24:48.687Z,5.25
2023-02-25T16:27:41.360Z,6.80
2023-02-25T16:30:24.951Z,5.97
2023-02-25T16:33:26.994Z,6.78
2023-02-25T16:36:07.739Z,5.50
2023-02-25T16:38:42.764Z,6.25
2023-02-25T16:41:09.681Z,8.38
2023-02-25T16:43:39.194Z,7.50
2023-02-25T16:46:10.397Z,6.70
2023-02-25T16:48:58.553Z,3.72
2023-02-25T16:51:25.502Z,3.63
2023-02-25T16:53:58.356Z,4.45
2023-02-25T16:56:28.988Z,3.80
2023-02-25T16:59:03.830Z,4.90
2023-02-25T17:01:31.875Z,8.00
2023-02-25T17:04:11.767Z,5.20
2023-02-25T17:06:38.608Z,5.90
2023-02-25T17:09:05.279Z,8.77
2023-02-25T17:11:32.367Z,6.55
2023-02-25T17:14:03.949Z,4.20
2023-02-25T17:16:37.098Z,7.95
2023-02-25T17:19:08.342Z,8.40
2023-02-25T17:21:43.497Z,8.23
2023-02-25T17:24:17.693Z,6.25
2023-02-25T17:26:47.278Z,6.82
2023-02-25T17:29:16.108Z,10.07
2023-02-25T17:31:52.047Z,4.93
2023-02-25T17:34:27.436Z,5.13
2023-02-25T17:36:55.307Z,11.57
2023-02-25T17:39:22.796Z,6.80
2023-02-25T17:41:50.009Z,6.93
2023-02-25T17:44:39.075Z,6.07
2023-02-25T17:47:09.672Z,6.28
2023-02-25T17:49:37.917Z,8.00
2023-02-25T17:52:06.221Z,5.40
2023-02-25T17:54:38.210Z,8.20
2023-02-25T17:57:20.701Z,7.85
2023-02-25T18:00:05.292Z,7.57
2023-02-25T18:02:35.576Z,6.88
2023-02-25T18:07:42.954Z,11.98
2023-02-25T18:10:31.403Z,7.60
2023-02-25T18:13:03.299Z,17.30
2023-02-25T18:15:33.241Z,29.08
2023-02-25T18:18:04.987Z,29.67
2023-02-25T18:20:37.433Z,27.08
2023-02-25T18:23:24.447Z,15.13
2023-02-25T18:26:16.089Z,14.65
2023-02-25T18:28:42.754Z,12.55
2023-02-25T18:31:09.907Z,9.18
2023-02-25T18:33:36.743Z,11.93
2023-02-25T18:36:08.042Z,13.25
2023-02-25T18:38:37.601Z,9.15
2023-02-25T18:41:08.372Z,9.40
2023-02-25T18:43:39.973Z,11.07
2023-02-25T18:46:06.705Z,11.23
2023-02-25T18:48:35.304Z,10.20
2023-02-25T18:51:05.256Z,8.15
2023-02-25T18:53:33.550Z,9.73
2023-02-25T18:56:00.279Z,8.13
2023-02-25T18:58:26.949Z,9.10
2023-02-25T19:00:58.598Z,6.70
2023-02-25T19:03:30.422Z,8.55
2023-02-25T19:05:57.275Z,7.35
2023-02-25T19:08:24.684Z,10.13
2023-02-25T19:10:53.364Z,12.98
2023-02-25T19:13:31.455Z,9.90
2023-02-25T19:15:58.341Z,7.20
2023-02-25T19:18:25.159Z,9.10
2023-02-25T19:20:51.897Z,8.82
2023-02-25T19:23:19.464Z,10.77
2023-02-25T19:25:47.877Z,9.40
2023-02-25T19:28:14.627Z,9.50
2023-02-25T19:30:43.050Z,11.07
2023-02-25T19:33:11.629Z,6.90
2023-02-25T19:35:40.992Z,8.82
2023-02-25T19:38:11.109Z,8.87
2023-02-25T19:40:38.278Z,7.63
2023-02-25T19:43:05.427Z,8.27
2023-02-25T19:45:32.532Z,8.55
2023-02-25T19:47:59.912Z,11.70
2023-02-25T19:50:27.398Z,6.95
2023-02-25T19:52:55.592Z,78.18
2023-02-25T19:55:22.731Z,32.10
2023-02-25T19:57:49.577Z,27.48
2023-02-25T20:00:22.675Z,16.55
2023-02-25T20:02:51.199Z,37.25
2023-02-25T20:05:17.972Z,26.40
2023-02-25T20:07:44.807Z,15.48
2023-02-25T20:10:13.726Z,10.95
2023-02-25T20:12:42.768Z,8.63
2023-02-25T20:15:10.966Z,10.15
2023-02-25T20:17:39.390Z,11.38
2023-02-25T20:20:08.359Z,11.32
2023-02-25T20:22:36.181Z,9.98
2023-02-25T20:25:03.095Z,9.30
2023-02-25T20:27:29.781Z,10.55
2023-02-25T20:29:56.462Z,10.68
2023-02-25T20:32:23.192Z,7.57
2023-02-25T20:34:50.022Z,8.88
2023-02-25T20:37:22.453Z,10.93
2023-02-25T20:39:57.076Z,13.50
2023-02-25T20:42:28.192Z,12.07
2023-02-25T20:44:55.088Z,10.30
2023-02-25T20:47:27.871Z,12.48
2023-02-25T20:49:58.311Z,10.65
2023-02-25T20:52:26.821Z,11.25
2023-02-25T20:54:54.000Z,9.07
2023-02-25T20:57:22.778Z,9.57
2023-02-25T20:59:49.820Z,10.25
2023-02-25T21:02:17.390Z,5.43
2023-02-25T21:04:44.312Z,7.47
2023-02-25T21:07:11.448Z,14.77
2023-02-25T21:09:38.303Z,12.65
2023-02-25T21:12:05.932Z,12.07
2023-02-25T21:14:32.727Z,12.68
2023-02-25T21:16:59.463Z,11.15
2023-02-25T21:19:28.139Z,11.85
2023-02-25T21:21:55.920Z,10.80
2023-02-25T21:24:23.153Z,12.77
2023-02-25T21:26:49.904Z,7.03
2023-02-25T21:29:16.844Z,7.03
2023-02-25T21:31:44.012Z,10.63
2023-02-25T21:34:12.905Z,7.35
2023-02-25T21:36:41.056Z,6.95
2023-02-25T21:39:09.313Z,4.15
2023-02-25T21:41:38.050Z,7.40
2023-02-25T21:44:05.164Z,3.17
2023-02-25T21:46:32.240Z,3.10
2023-02-25T21:48:59.480Z,2.60
2023-02-25T21:51:28.376Z,6.90
2023-02-25T21:53:57.184Z,8.82
2023-02-25T21:56:25.276Z,6.85
2023-02-25T21:58:56.729Z,3.10
2023-02-25T22:01:29.650Z,3.67
2023-02-25T22:03:56.995Z,7.07
2023-02-25T22:06:25.025Z,7.30
2023-02-25T22:08:53.313Z,6.13
2023-02-25T22:11:23.302Z,4.22
2023-02-25T22:13:53.005Z,3.65
2023-02-25T22:16:20.905Z,4.50
2023-02-25T22:18:47.701Z,7.63
2023-02-25T22:21:20.879Z,2.95
2023-02-25T22:23:49.178Z,5.57
2023-02-25T22:26:21.577Z,5.93
2023-02-25T22:28:48.445Z,5.43
2023-02-25T22:31:18.669Z,5.05
2023-02-25T22:33:45.769Z,4.57
2023-02-25T22:36:14.466Z,7.38
2023-02-25T22:38:42.688Z,6.78
2023-02-25T22:41:16.524Z,4.43
2023-02-25T22:43:43.737Z,6.40
2023-02-25T22:46:19.232Z,7.68
2023-02-25T22:48:47.803Z,7.43
2023-02-25T22:51:21.726Z,10.43
2023-02-25T22:53:48.490Z,6.72
2023-02-25T22:56:15.167Z,11.60
2023-02-25T22:58:42.173Z,6.47
2023-02-25T23:01:13.964Z,5.22
2023-02-25T23:03:43.643Z,6.43
2023-02-25T23:06:11.563Z,5.75
2023-02-25T23:08:39.012Z,5.07
2023-02-25T23:11:14.989Z,7.93
2023-02-25T23:13:46.189Z,6.22
2023-02-25T23:16:34.896Z,9.43
2023-02-25T23:19:04.120Z,7.95
2023-02-25T23:21:32.368Z,6.03
2023-02-25T23:24:00.514Z,7.60
2023-02-25T23:26:30.513Z,10.80
2023-02-25T23:28:58.665Z,9.45
2023-02-25T23:31:28.370Z,7.60
2023-02-25T23:33:57.363Z,3.95
2023-02-25T23:36:24.905Z,8.43
2023-02-25T23:38:56.685Z,5.10
2023-02-25T23:41:24.292Z,4.63
2023-02-25T23:43:56.418Z,9.05
2023-02-25T23:46:26.450Z,7.38
2023-02-25T23:49:02.550Z,6.10
2023-02-25T23:51:30.142Z,5.63
2023-02-25T23:53:59.410Z,5.43
2023-02-25T23:56:27.856Z,6.47
2023-02-25T23:58:55.405Z,8.27
